sensor_id;sensor_type;location;lat;lon;timestamp;P1;durP1;ratioP1;P2;durP2;ratioP2
70320;SDS011;61127;55.826;37.046;2023-12-29T00:00:05;4.10;;;1.63;;
70320;SDS011;61127;55.826;37.046;2023-12-29T00:02:32;3.03;;;1.33;;
70320;SDS011;61127;55.826;37.046;2023-12-29T00:04:57;3.92;;;1.50;;
70320;SDS011;61127;55.826;37.046;2023-12-29T00:07:23;4.20;;;1.77;;
70320;SDS011;61127;55.826;37.046;2023-12-29T00:09:49;4.43;;;1.50;;
70320;SDS011;61127;55.826;37.046;2023-12-29T00:12:14;4.03;;;1.60;;
70320;SDS011;61127;55.826;37.046;2023-12-29T00:14:40;3.33;;;1.40;;
70320;SDS011;61127;55.826;37.046;2023-12-29T00:17:06;3.50;;;1.48;;
70320;SDS011;61127;55.826;37.046;2023-12-29T00:19:32;3.15;;;1.48;;
70320;SDS011;61127;55.826;37.046;2023-12-29T00:21:57;4.23;;;1.67;;
70320;SDS011;61127;55.826;37.046;2023-12-29T00:24:25;3.17;;;1.50;;
70320;SDS011;61127;55.826;37.046;2023-12-29T00:26:51;3.15;;;1.25;;
70320;SDS011;61127;55.826;37.046;2023-12-29T00:29:17;4.23;;;1.60;;
70320;SDS011;61127;55.826;37.046;2023-12-29T00:31:43;3.25;;;1.50;;
70320;SDS011;61127;55.826;37.046;2023-12-29T00:34:08;1.97;;;1.20;;
70320;SDS011;61127;55.826;37.046;2023-12-29T00:36:34;2.93;;;1.20;;
70320;SDS011;61127;55.826;37.046;2023-12-29T00:39:00;3.58;;;1.48;;
70320;SDS011;61127;55.826;37.046;2023-12-29T00:41:26;4.28;;;1.60;;
70320;SDS011;61127;55.826;37.046;2023-12-29T00:43:51;4.65;;;1.48;;
70320;SDS011;61127;55.826;37.046;2023-12-29T00:46:17;4.33;;;1.80;;
70320;SDS011;61127;55.826;37.046;2023-12-29T00:48:43;7.38;;;2.40;;
70320;SDS011;61127;55.826;37.046;2023-12-29T00:51:08;7.77;;;2.20;;
70320;SDS011;61127;55.826;37.046;2023-12-29T00:53:34;5.95;;;1.90;;
70320;SDS011;61127;55.826;37.046;2023-12-29T00:56:00;4.63;;;1.60;;
70320;SDS011;61127;55.826;37.046;2023-12-29T00:58:26;5.60;;;2.10;;
70320;SDS011;61127;55.826;37.046;2023-12-29T01:00:53;4.38;;;1.52;;
70320;SDS011;61127;55.826;37.046;2023-12-29T01:03:20;4.80;;;1.77;;
70320;SDS011;61127;55.826;37.046;2023-12-29T01:05:47;4.47;;;1.85;;
70320;SDS011;61127;55.826;37.046;2023-12-29T01:08:12;4.60;;;1.70;;
70320;SDS011;61127;55.826;37.046;2023-12-29T01:10:38;7.28;;;2.10;;
70320;SDS011;61127;55.826;37.046;2023-12-29T01:13:04;4.13;;;1.60;;
70320;SDS011;61127;55.826;37.046;2023-12-29T01:15:29;5.10;;;1.75;;
70320;SDS011;61127;55.826;37.046;2023-12-29T01:17:55;6.83;;;1.70;;
70320;SDS011;61127;55.826;37.046;2023-12-29T01:20:21;4.95;;;2.00;;
70320;SDS011;61127;55.826;37.046;2023-12-29T01:22:49;4.90;;;1.95;;
70320;SDS011;61127;55.826;37.046;2023-12-29T01:25:14;8.23;;;2.13;;
70320;SDS011;61127;55.826;37.046;2023-12-29T01:27:40;6.00;;;2.00;;
70320;SDS011;61127;55.826;37.046;2023-12-29T01:30:06;6.53;;;1.67;;
70320;SDS011;61127;55.826;37.046;2023-12-29T01:32:32;4.72;;;2.00;;
70320;SDS011;61127;55.826;37.046;2023-12-29T01:34:57;4.13;;;1.80;;
70320;SDS011;61127;55.826;37.046;2023-12-29T01:37:23;4.88;;;2.00;;
70320;SDS011;61127;55.826;37.046;2023-12-29T01:39:49;5.47;;;1.97;;
70320;SDS011;61127;55.826;37.046;2023-12-29T01:42:15;5.53;;;2.00;;
70320;SDS011;61127;55.826;37.046;2023-12-29T01:44:40;4.30;;;1.67;;
70320;SDS011;61127;55.826;37.046;2023-12-29T01:47:13;4.82;;;1.92;;
70320;SDS011;61127;55.826;37.046;2023-12-29T01:49:41;5.57;;;2.00;;
70320;SDS011;61127;55.826;37.046;2023-12-29T01:52:07;4.70;;;2.00;;
70320;SDS011;61127;55.826;37.046;2023-12-29T01:54:34;5.00;;;1.75;;
70320;SDS011;61127;55.826;37.046;2023-12-29T01:57:01;4.78;;;2.10;;
70320;SDS011;61127;55.826;37.046;2023-12-29T01:59:28;4.67;;;1.90;;
70320;SDS011;61127;55.826;37.046;2023-12-29T02:01:54;5.70;;;1.90;;
70320;SDS011;61127;55.826;37.046;2023-12-29T02:04:26;4.35;;;1.60;;
70320;SDS011;61127;55.826;37.046;2023-12-29T02:06:52;5.10;;;1.90;;
70320;SDS011;61127;55.826;37.046;2023-12-29T02:09:18;6.72;;;1.90;;
70320;SDS011;61127;55.826;37.046;2023-12-29T02:11:44;5.17;;;1.80;;
70320;SDS011;61127;55.826;37.046;2023-12-29T02:14:10;5.78;;;1.90;;
70320;SDS011;61127;55.826;37.046;2023-12-29T02:21:46;4.70;;;2.00;;
70320;SDS011;61127;55.826;37.046;2023-12-29T02:24:12;5.07;;;2.13;;
70320;SDS011;61127;55.826;37.046;2023-12-29T02:26:38;5.37;;;2.20;;
70320;SDS011;61127;55.826;37.046;2023-12-29T02:29:04;5.90;;;1.80;;
70320;SDS011;61127;55.826;37.046;2023-12-29T02:31:32;5.25;;;1.83;;
70320;SDS011;61127;55.826;37.046;2023-12-29T02:33:59;5.30;;;2.00;;
70320;SDS011;61127;55.826;37.046;2023-12-29T02:36:28;4.60;;;1.73;;
70320;SDS011;61127;55.826;37.046;2023-12-29T02:38:54;5.90;;;2.00;;
70320;SDS011;61127;55.826;37.046;2023-12-29T02:41:20;4.75;;;1.77;;
70320;SDS011;61127;55.826;37.046;2023-12-29T02:43:46;5.82;;;1.92;;
70320;SDS011;61127;55.826;37.046;2023-12-29T02:46:12;3.50;;;1.80;;
70320;SDS011;61127;55.826;37.046;2023-12-29T02:48:38;5.43;;;2.10;;
70320;SDS011;61127;55.826;37.046;2023-12-29T02:51:05;4.47;;;1.88;;
70320;SDS011;61127;55.826;37.046;2023-12-29T02:53:33;5.17;;;2.00;;
70320;SDS011;61127;55.826;37.046;2023-12-29T02:55:59;5.57;;;2.50;;
70320;SDS011;61127;55.826;37.046;2023-12-29T02:58:24;5.97;;;2.37;;
70320;SDS011;61127;55.826;37.046;2023-12-29T03:00:50;5.35;;;2.22;;
70320;SDS011;61127;55.826;37.046;2023-12-29T03:03:16;5.57;;;2.10;;
70320;SDS011;61127;55.826;37.046;2023-12-29T03:05:41;5.05;;;2.10;;
70320;SDS011;61127;55.826;37.046;2023-12-29T03:08:07;4.80;;;1.97;;
70320;SDS011;61127;55.826;37.046;2023-12-29T03:10:33;4.93;;;2.13;;
70320;SDS011;61127;55.826;37.046;2023-12-29T03:12:59;4.73;;;1.93;;
70320;SDS011;61127;55.826;37.046;2023-12-29T03:15:24;6.32;;;2.08;;
70320;SDS011;61127;55.826;37.046;2023-12-29T03:17:50;5.87;;;2.60;;
70320;SDS011;61127;55.826;37.046;2023-12-29T03:20:16;5.03;;;2.00;;
70320;SDS011;61127;55.826;37.046;2023-12-29T03:22:42;7.63;;;2.10;;
70320;SDS011;61127;55.826;37.046;2023-12-29T03:25:07;5.15;;;1.83;;
70320;SDS011;61127;55.826;37.046;2023-12-29T03:27:33;6.60;;;2.20;;
70320;SDS011;61127;55.826;37.046;2023-12-29T03:29:59;6.53;;;2.00;;
70320;SDS011;61127;55.826;37.046;2023-12-29T03:32:25;6.55;;;2.30;;
70320;SDS011;61127;55.826;37.046;2023-12-29T03:34:50;5.63;;;1.80;;
70320;SDS011;61127;55.826;37.046;2023-12-29T03:37:16;5.10;;;2.05;;
70320;SDS011;61127;55.826;37.046;2023-12-29T03:39:42;8.38;;;2.45;;
70320;SDS011;61127;55.826;37.046;2023-12-29T03:42:07;4.77;;;1.87;;
70320;SDS011;61127;55.826;37.046;2023-12-29T03:44:33;5.32;;;1.73;;
70320;SDS011;61127;55.826;37.046;2023-12-29T03:47:00;6.20;;;1.83;;
70320;SDS011;61127;55.826;37.046;2023-12-29T03:49:25;6.07;;;2.03;;
70320;SDS011;61127;55.826;37.046;2023-12-29T03:51:51;5.30;;;2.13;;
70320;SDS011;61127;55.826;37.046;2023-12-29T03:54:16;6.30;;;1.98;;
70320;SDS011;61127;55.826;37.046;2023-12-29T03:56:43;5.07;;;1.90;;
70320;SDS011;61127;55.826;37.046;2023-12-29T03:59:09;5.83;;;1.70;;
70320;SDS011;61127;55.826;37.046;2023-12-29T04:01:35;4.97;;;2.10;;
70320;SDS011;61127;55.826;37.046;2023-12-29T04:04:00;4.40;;;1.60;;
70320;SDS011;61127;55.826;37.046;2023-12-29T04:06:26;4.40;;;1.73;;
70320;SDS011;61127;55.826;37.046;2023-12-29T04:08:52;5.27;;;2.07;;
70320;SDS011;61127;55.826;37.046;2023-12-29T04:11:18;3.85;;;1.90;;
70320;SDS011;61127;55.826;37.046;2023-12-29T04:13:43;4.97;;;1.47;;
70320;SDS011;61127;55.826;37.046;2023-12-29T04:16:09;6.78;;;1.77;;
70320;SDS011;61127;55.826;37.046;2023-12-29T04:18:35;5.43;;;2.00;;
70320;SDS011;61127;55.826;37.046;2023-12-29T04:21:00;5.15;;;1.80;;
70320;SDS011;61127;55.826;37.046;2023-12-29T04:23:26;5.15;;;1.90;;
70320;SDS011;61127;55.826;37.046;2023-12-29T04:25:52;4.28;;;1.83;;
70320;SDS011;61127;55.826;37.046;2023-12-29T04:28:18;4.80;;;1.93;;
70320;SDS011;61127;55.826;37.046;2023-12-29T04:30:44;6.38;;;1.88;;
70320;SDS011;61127;55.826;37.046;2023-12-29T04:33:09;5.00;;;2.03;;
70320;SDS011;61127;55.826;37.046;2023-12-29T04:35:35;3.88;;;1.70;;
70320;SDS011;61127;55.826;37.046;2023-12-29T04:38:01;4.40;;;1.90;;
70320;SDS011;61127;55.826;37.046;2023-12-29T04:40:27;6.78;;;2.00;;
70320;SDS011;61127;55.826;37.046;2023-12-29T04:42:53;5.40;;;1.98;;
70320;SDS011;61127;55.826;37.046;2023-12-29T04:45:19;5.93;;;2.40;;
70320;SDS011;61127;55.826;37.046;2023-12-29T04:47:45;5.38;;;1.95;;
70320;SDS011;61127;55.826;37.046;2023-12-29T04:50:10;5.70;;;1.90;;
70320;SDS011;61127;55.826;37.046;2023-12-29T04:52:36;6.25;;;2.30;;
70320;SDS011;61127;55.826;37.046;2023-12-29T04:55:02;4.80;;;1.93;;
70320;SDS011;61127;55.826;37.046;2023-12-29T04:57:30;5.57;;;2.20;;
70320;SDS011;61127;55.826;37.046;2023-12-29T04:59:56;6.33;;;2.10;;
70320;SDS011;61127;55.826;37.046;2023-12-29T05:02:22;6.38;;;2.00;;
70320;SDS011;61127;55.826;37.046;2023-12-29T05:04:48;6.57;;;2.40;;
70320;SDS011;61127;55.826;37.046;2023-12-29T05:07:14;5.83;;;2.07;;
70320;SDS011;61127;55.826;37.046;2023-12-29T05:09:39;4.90;;;2.03;;
70320;SDS011;61127;55.826;37.046;2023-12-29T05:12:05;7.47;;;2.37;;
70320;SDS011;61127;55.826;37.046;2023-12-29T05:14:31;7.47;;;2.28;;
70320;SDS011;61127;55.826;37.046;2023-12-29T05:16:57;6.85;;;2.40;;
70320;SDS011;61127;55.826;37.046;2023-12-29T05:19:23;6.03;;;2.23;;
70320;SDS011;61127;55.826;37.046;2023-12-29T05:21:49;6.63;;;2.60;;
70320;SDS011;61127;55.826;37.046;2023-12-29T05:24:17;6.50;;;2.33;;
70320;SDS011;61127;55.826;37.046;2023-12-29T05:26:43;7.90;;;2.70;;
70320;SDS011;61127;55.826;37.046;2023-12-29T05:29:09;7.38;;;2.63;;
70320;SDS011;61127;55.826;37.046;2023-12-29T05:31:36;4.50;;;2.00;;
70320;SDS011;61127;55.826;37.046;2023-12-29T05:34:01;8.23;;;2.13;;
70320;SDS011;61127;55.826;37.046;2023-12-29T05:36:27;5.37;;;2.33;;
70320;SDS011;61127;55.826;37.046;2023-12-29T05:38:53;8.00;;;2.95;;
70320;SDS011;61127;55.826;37.046;2023-12-29T05:41:18;7.27;;;2.40;;
70320;SDS011;61127;55.826;37.046;2023-12-29T05:43:44;11.10;;;2.95;;
70320;SDS011;61127;55.826;37.046;2023-12-29T05:46:10;8.30;;;2.70;;
70320;SDS011;61127;55.826;37.046;2023-12-29T05:48:38;7.97;;;2.90;;
70320;SDS011;61127;55.826;37.046;2023-12-29T05:51:10;8.98;;;2.83;;
70320;SDS011;61127;55.826;37.046;2023-12-29T05:53:36;10.27;;;3.22;;
70320;SDS011;61127;55.826;37.046;2023-12-29T05:56:02;8.25;;;2.83;;
70320;SDS011;61127;55.826;37.046;2023-12-29T05:58:28;6.57;;;2.63;;
70320;SDS011;61127;55.826;37.046;2023-12-29T06:00:54;10.68;;;3.00;;
70320;SDS011;61127;55.826;37.046;2023-12-29T06:03:21;8.40;;;3.00;;
70320;SDS011;61127;55.826;37.046;2023-12-29T06:05:46;8.05;;;2.67;;
70320;SDS011;61127;55.826;37.046;2023-12-29T06:08:12;12.18;;;3.60;;
70320;SDS011;61127;55.826;37.046;2023-12-29T06:10:38;8.18;;;2.83;;
70320;SDS011;61127;55.826;37.046;2023-12-29T06:13:04;9.20;;;3.20;;
70320;SDS011;61127;55.826;37.046;2023-12-29T06:15:30;11.25;;;3.70;;
70320;SDS011;61127;55.826;37.046;2023-12-29T06:17:56;14.37;;;4.03;;
70320;SDS011;61127;55.826;37.046;2023-12-29T06:20:22;10.05;;;3.70;;
70320;SDS011;61127;55.826;37.046;2023-12-29T06:22:47;10.17;;;4.07;;
70320;SDS011;61127;55.826;37.046;2023-12-29T06:25:13;10.15;;;3.03;;
70320;SDS011;61127;55.826;37.046;2023-12-29T06:27:39;9.67;;;3.40;;
70320;SDS011;61127;55.826;37.046;2023-12-29T06:30:08;10.52;;;3.88;;
70320;SDS011;61127;55.826;37.046;2023-12-29T06:32:36;8.95;;;3.45;;
70320;SDS011;61127;55.826;37.046;2023-12-29T06:35:02;9.18;;;3.47;;
70320;SDS011;61127;55.826;37.046;2023-12-29T06:37:30;10.03;;;3.67;;
70320;SDS011;61127;55.826;37.046;2023-12-29T06:39:56;8.50;;;2.80;;
70320;SDS011;61127;55.826;37.046;2023-12-29T06:42:22;7.63;;;2.90;;
70320;SDS011;61127;55.826;37.046;2023-12-29T06:44:48;7.65;;;3.25;;
70320;SDS011;61127;55.826;37.046;2023-12-29T06:47:14;8.50;;;3.30;;
70320;SDS011;61127;55.826;37.046;2023-12-29T06:49:41;8.05;;;3.65;;
70320;SDS011;61127;55.826;37.046;2023-12-29T06:52:07;8.90;;;3.20;;
70320;SDS011;61127;55.826;37.046;2023-12-29T06:54:36;9.70;;;3.37;;
70320;SDS011;61127;55.826;37.046;2023-12-29T06:57:01;8.23;;;3.13;;
70320;SDS011;61127;55.826;37.046;2023-12-29T06:59:27;9.40;;;3.92;;
70320;SDS011;61127;55.826;37.046;2023-12-29T07:01:53;11.10;;;3.63;;
70320;SDS011;61127;55.826;37.046;2023-12-29T07:04:19;7.75;;;3.10;;
70320;SDS011;61127;55.826;37.046;2023-12-29T07:06:45;10.57;;;3.47;;
70320;SDS011;61127;55.826;37.046;2023-12-29T07:09:10;9.35;;;3.20;;
70320;SDS011;61127;55.826;37.046;2023-12-29T07:11:36;8.97;;;3.30;;
70320;SDS011;61127;55.826;37.046;2023-12-29T07:14:02;7.30;;;3.00;;
70320;SDS011;61127;55.826;37.046;2023-12-29T07:16:28;9.05;;;3.47;;
70320;SDS011;61127;55.826;37.046;2023-12-29T07:18:54;9.20;;;3.43;;
70320;SDS011;61127;55.826;37.046;2023-12-29T07:21:20;11.35;;;3.60;;
70320;SDS011;61127;55.826;37.046;2023-12-29T07:23:46;11.73;;;3.10;;
70320;SDS011;61127;55.826;37.046;2023-12-29T07:26:12;7.70;;;3.20;;
70320;SDS011;61127;55.826;37.046;2023-12-29T07:28:37;10.63;;;3.42;;
70320;SDS011;61127;55.826;37.046;2023-12-29T07:31:03;9.77;;;3.77;;
70320;SDS011;61127;55.826;37.046;2023-12-29T07:33:30;9.57;;;3.20;;
70320;SDS011;61127;55.826;37.046;2023-12-29T07:35:56;7.47;;;2.97;;
70320;SDS011;61127;55.826;37.046;2023-12-29T07:38:22;9.17;;;3.30;;
70320;SDS011;61127;55.826;37.046;2023-12-29T07:40:47;11.57;;;4.10;;
70320;SDS011;61127;55.826;37.046;2023-12-29T07:43:13;8.43;;;3.47;;
70320;SDS011;61127;55.826;37.046;2023-12-29T07:45:39;10.10;;;3.25;;
70320;SDS011;61127;55.826;37.046;2023-12-29T07:48:05;9.30;;;3.30;;
70320;SDS011;61127;55.826;37.046;2023-12-29T07:50:31;9.50;;;3.57;;
70320;SDS011;61127;55.826;37.046;2023-12-29T07:52:56;8.65;;;3.40;;
70320;SDS011;61127;55.826;37.046;2023-12-29T07:55:22;11.37;;;3.47;;
70320;SDS011;61127;55.826;37.046;2023-12-29T07:57:48;14.20;;;3.30;;
70320;SDS011;61127;55.826;37.046;2023-12-29T08:00:14;10.68;;;3.90;;
70320;SDS011;61127;55.826;37.046;2023-12-29T08:02:40;10.23;;;3.60;;
70320;SDS011;61127;55.826;37.046;2023-12-29T08:05:06;11.48;;;3.80;;
70320;SDS011;61127;55.826;37.046;2023-12-29T08:07:35;9.52;;;3.70;;
70320;SDS011;61127;55.826;37.046;2023-12-29T08:10:06;12.13;;;3.83;;
70320;SDS011;61127;55.826;37.046;2023-12-29T08:12:32;11.27;;;3.72;;
70320;SDS011;61127;55.826;37.046;2023-12-29T08:14:59;11.63;;;3.78;;
70320;SDS011;61127;55.826;37.046;2023-12-29T08:17:26;11.75;;;4.38;;
70320;SDS011;61127;55.826;37.046;2023-12-29T08:19:53;13.13;;;4.68;;
70320;SDS011;61127;55.826;37.046;2023-12-29T08:22:19;12.20;;;4.13;;
70320;SDS011;61127;55.826;37.046;2023-12-29T08:24:45;10.48;;;3.95;;
70320;SDS011;61127;55.826;37.046;2023-12-29T08:27:14;12.68;;;4.22;;
70320;SDS011;61127;55.826;37.046;2023-12-29T08:29:40;12.25;;;4.50;;
70320;SDS011;61127;55.826;37.046;2023-12-29T08:32:06;9.57;;;4.13;;
70320;SDS011;61127;55.826;37.046;2023-12-29T08:34:32;9.05;;;4.28;;
70320;SDS011;61127;55.826;37.046;2023-12-29T08:37:00;8.47;;;3.63;;
70320;SDS011;61127;55.826;37.046;2023-12-29T08:39:25;10.13;;;3.60;;
70320;SDS011;61127;55.826;37.046;2023-12-29T08:41:51;8.00;;;3.47;;
70320;SDS011;61127;55.826;37.046;2023-12-29T08:44:17;10.30;;;4.20;;
70320;SDS011;61127;55.826;37.046;2023-12-29T08:46:43;10.35;;;3.63;;
70320;SDS011;61127;55.826;37.046;2023-12-29T08:49:08;10.30;;;3.57;;
70320;SDS011;61127;55.826;37.046;2023-12-29T08:51:34;9.70;;;3.45;;
70320;SDS011;61127;55.826;37.046;2023-12-29T08:54:00;9.17;;;3.80;;
70320;SDS011;61127;55.826;37.046;2023-12-29T08:56:26;8.55;;;3.40;;
70320;SDS011;61127;55.826;37.046;2023-12-29T08:58:52;9.97;;;3.67;;
70320;SDS011;61127;55.826;37.046;2023-12-29T09:01:18;11.43;;;4.35;;
70320;SDS011;61127;55.826;37.046;2023-12-29T09:03:43;8.95;;;3.30;;
70320;SDS011;61127;55.826;37.046;2023-12-29T09:06:09;9.83;;;3.70;;
70320;SDS011;61127;55.826;37.046;2023-12-29T09:08:35;8.38;;;3.25;;
70320;SDS011;61127;55.826;37.046;2023-12-29T09:11:01;9.15;;;3.70;;
70320;SDS011;61127;55.826;37.046;2023-12-29T09:13:27;9.00;;;3.90;;
70320;SDS011;61127;55.826;37.046;2023-12-29T09:15:54;9.02;;;4.18;;
70320;SDS011;61127;55.826;37.046;2023-12-29T09:18:21;8.98;;;3.80;;
70320;SDS011;61127;55.826;37.046;2023-12-29T09:20:47;8.77;;;3.43;;
70320;SDS011;61127;55.826;37.046;2023-12-29T09:23:14;8.93;;;3.70;;
70320;SDS011;61127;55.826;37.046;2023-12-29T09:25:40;12.10;;;4.00;;
70320;SDS011;61127;55.826;37.046;2023-12-29T09:28:06;8.93;;;3.67;;
70320;SDS011;61127;55.826;37.046;2023-12-29T09:30:32;10.50;;;3.83;;
70320;SDS011;61127;55.826;37.046;2023-12-29T09:32:58;10.15;;;4.10;;
70320;SDS011;61127;55.826;37.046;2023-12-29T09:35:24;11.02;;;4.18;;
70320;SDS011;61127;55.826;37.046;2023-12-29T09:37:49;10.93;;;3.97;;
70320;SDS011;61127;55.826;37.046;2023-12-29T09:40:15;10.07;;;4.18;;
70320;SDS011;61127;55.826;37.046;2023-12-29T09:42:44;7.60;;;3.42;;
70320;SDS011;61127;55.826;37.046;2023-12-29T09:45:11;10.07;;;3.92;;
70320;SDS011;61127;55.826;37.046;2023-12-29T09:47:41;11.18;;;4.10;;
70320;SDS011;61127;55.826;37.046;2023-12-29T09:50:11;7.82;;;3.10;;
70320;SDS011;61127;55.826;37.046;2023-12-29T09:52:40;10.18;;;3.60;;
70320;SDS011;61127;55.826;37.046;2023-12-29T09:55:09;10.43;;;4.17;;
70320;SDS011;61127;55.826;37.046;2023-12-29T09:57:38;10.25;;;4.32;;
70320;SDS011;61127;55.826;37.046;2023-12-29T10:00:05;8.45;;;3.25;;
70320;SDS011;61127;55.826;37.046;2023-12-29T10:02:37;6.47;;;3.05;;
70320;SDS011;61127;55.826;37.046;2023-12-29T10:05:03;11.23;;;3.57;;
70320;SDS011;61127;55.826;37.046;2023-12-29T10:07:32;11.25;;;3.42;;
70320;SDS011;61127;55.826;37.046;2023-12-29T10:10:00;8.43;;;3.55;;
70320;SDS011;61127;55.826;37.046;2023-12-29T10:12:29;10.00;;;4.45;;
70320;SDS011;61127;55.826;37.046;2023-12-29T10:19:50;10.85;;;3.72;;
70320;SDS011;61127;55.826;37.046;2023-12-29T10:22:28;8.57;;;4.07;;
70320;SDS011;61127;55.826;37.046;2023-12-29T10:24:57;9.57;;;3.53;;
70320;SDS011;61127;55.826;37.046;2023-12-29T10:27:23;10.02;;;3.88;;
70320;SDS011;61127;55.826;37.046;2023-12-29T10:29:48;9.60;;;3.83;;
70320;SDS011;61127;55.826;37.046;2023-12-29T10:32:14;9.93;;;3.90;;
70320;SDS011;61127;55.826;37.046;2023-12-29T10:34:40;9.50;;;4.33;;
70320;SDS011;61127;55.826;37.046;2023-12-29T10:37:07;13.55;;;4.72;;
70320;SDS011;61127;55.826;37.046;2023-12-29T10:39:34;10.02;;;4.10;;
70320;SDS011;61127;55.826;37.046;2023-12-29T10:42:07;11.77;;;4.75;;
70320;SDS011;61127;55.826;37.046;2023-12-29T10:44:34;10.00;;;3.80;;
70320;SDS011;61127;55.826;37.046;2023-12-29T10:47:09;10.93;;;4.77;;
70320;SDS011;61127;55.826;37.046;2023-12-29T10:49:36;10.95;;;4.28;;
70320;SDS011;61127;55.826;37.046;2023-12-29T10:52:14;10.10;;;4.15;;
70320;SDS011;61127;55.826;37.046;2023-12-29T10:54:41;9.60;;;4.10;;
70320;SDS011;61127;55.826;37.046;2023-12-29T10:57:08;14.13;;;4.93;;
70320;SDS011;61127;55.826;37.046;2023-12-29T10:59:35;11.33;;;4.73;;
70320;SDS011;61127;55.826;37.046;2023-12-29T11:02:01;9.32;;;4.35;;
70320;SDS011;61127;55.826;37.046;2023-12-29T11:04:29;11.38;;;3.92;;
70320;SDS011;61127;55.826;37.046;2023-12-29T11:06:55;10.85;;;4.53;;
70320;SDS011;61127;55.826;37.046;2023-12-29T11:09:27;9.95;;;3.95;;
70320;SDS011;61127;55.826;37.046;2023-12-29T11:11:55;12.05;;;4.95;;
70320;SDS011;61127;55.826;37.046;2023-12-29T11:14:21;10.52;;;4.90;;
70320;SDS011;61127;55.826;37.046;2023-12-29T11:16:48;13.67;;;5.63;;
70320;SDS011;61127;55.826;37.046;2023-12-29T11:19:14;10.48;;;4.45;;
70320;SDS011;61127;55.826;37.046;2023-12-29T11:21:40;8.85;;;4.20;;
70320;SDS011;61127;55.826;37.046;2023-12-29T11:24:08;10.20;;;4.45;;
70320;SDS011;61127;55.826;37.046;2023-12-29T11:26:34;16.45;;;5.47;;
70320;SDS011;61127;55.826;37.046;2023-12-29T11:28:59;12.73;;;5.07;;
70320;SDS011;61127;55.826;37.046;2023-12-29T11:31:26;11.90;;;5.38;;
70320;SDS011;61127;55.826;37.046;2023-12-29T11:33:54;13.48;;;4.88;;
70320;SDS011;61127;55.826;37.046;2023-12-29T11:36:24;10.18;;;4.90;;
70320;SDS011;61127;55.826;37.046;2023-12-29T11:39:02;10.80;;;5.03;;
70320;SDS011;61127;55.826;37.046;2023-12-29T11:44:01;13.95;;;4.78;;
70320;SDS011;61127;55.826;37.046;2023-12-29T11:48:59;12.57;;;4.53;;
70320;SDS011;61127;55.826;37.046;2023-12-29T11:53:54;9.00;;;4.50;;
70320;SDS011;61127;55.826;37.046;2023-12-29T11:56:20;12.10;;;4.75;;
70320;SDS011;61127;55.826;37.046;2023-12-29T11:58:46;13.93;;;5.17;;
70320;SDS011;61127;55.826;37.046;2023-12-29T12:01:12;11.63;;;4.82;;
70320;SDS011;61127;55.826;37.046;2023-12-29T12:03:37;10.82;;;4.65;;
70320;SDS011;61127;55.826;37.046;2023-12-29T12:06:03;12.02;;;4.82;;
70320;SDS011;61127;55.826;37.046;2023-12-29T12:08:36;11.73;;;5.13;;
70320;SDS011;61127;55.826;37.046;2023-12-29T12:13:53;10.88;;;5.22;;
70320;SDS011;61127;55.826;37.046;2023-12-29T12:19:04;13.30;;;4.88;;
70320;SDS011;61127;55.826;37.046;2023-12-29T12:21:30;11.20;;;5.40;;
70320;SDS011;61127;55.826;37.046;2023-12-29T12:23:55;12.93;;;5.00;;
70320;SDS011;61127;55.826;37.046;2023-12-29T12:26:21;10.45;;;5.00;;
70320;SDS011;61127;55.826;37.046;2023-12-29T12:28:51;12.27;;;4.73;;
70320;SDS011;61127;55.826;37.046;2023-12-29T12:31:17;11.43;;;5.05;;
70320;SDS011;61127;55.826;37.046;2023-12-29T12:33:52;10.63;;;4.60;;
70320;SDS011;61127;55.826;37.046;2023-12-29T12:36:18;10.95;;;4.95;;
70320;SDS011;61127;55.826;37.046;2023-12-29T12:38:50;12.70;;;5.73;;
70320;SDS011;61127;55.826;37.046;2023-12-29T12:41:17;11.98;;;5.40;;
70320;SDS011;61127;55.826;37.046;2023-12-29T12:43:44;11.70;;;4.85;;
70320;SDS011;61127;55.826;37.046;2023-12-29T12:46:14;11.23;;;4.60;;
70320;SDS011;61127;55.826;37.046;2023-12-29T12:48:41;13.73;;;4.95;;
70320;SDS011;61127;55.826;37.046;2023-12-29T12:51:09;10.93;;;4.65;;
70320;SDS011;61127;55.826;37.046;2023-12-29T12:53:38;11.73;;;4.82;;
70320;SDS011;61127;55.826;37.046;2023-12-29T12:56:04;12.43;;;4.63;;
70320;SDS011;61127;55.826;37.046;2023-12-29T12:58:31;10.20;;;4.75;;
70320;SDS011;61127;55.826;37.046;2023-12-29T13:00:57;15.20;;;4.90;;
70320;SDS011;61127;55.826;37.046;2023-12-29T13:03:22;10.05;;;5.03;;
70320;SDS011;61127;55.826;37.046;2023-12-29T13:05:48;13.87;;;4.90;;
70320;SDS011;61127;55.826;37.046;2023-12-29T13:08:15;12.93;;;4.70;;
70320;SDS011;61127;55.826;37.046;2023-12-29T13:10:42;9.98;;;4.35;;
70320;SDS011;61127;55.826;37.046;2023-12-29T13:13:09;16.85;;;4.82;;
70320;SDS011;61127;55.826;37.046;2023-12-29T13:15:34;10.50;;;4.30;;
70320;SDS011;61127;55.826;37.046;2023-12-29T13:18:00;10.85;;;4.45;;
70320;SDS011;61127;55.826;37.046;2023-12-29T13:20:26;10.67;;;4.17;;
70320;SDS011;61127;55.826;37.046;2023-12-29T13:22:51;12.20;;;4.82;;
70320;SDS011;61127;55.826;37.046;2023-12-29T13:25:20;11.00;;;4.70;;
70320;SDS011;61127;55.826;37.046;2023-12-29T13:27:47;10.23;;;4.50;;
70320;SDS011;61127;55.826;37.046;2023-12-29T13:30:12;13.68;;;4.47;;
70320;SDS011;61127;55.826;37.046;2023-12-29T13:32:40;12.75;;;4.72;;
70320;SDS011;61127;55.826;37.046;2023-12-29T13:35:18;13.73;;;5.22;;
70320;SDS011;61127;55.826;37.046;2023-12-29T13:37:46;13.25;;;4.38;;
70320;SDS011;61127;55.826;37.046;2023-12-29T13:40:14;11.97;;;4.47;;
70320;SDS011;61127;55.826;37.046;2023-12-29T13:42:43;14.07;;;4.57;;
70320;SDS011;61127;55.826;37.046;2023-12-29T13:45:09;9.75;;;4.55;;
70320;SDS011;61127;55.826;37.046;2023-12-29T13:47:35;9.88;;;4.25;;
70320;SDS011;61127;55.826;37.046;2023-12-29T13:50:02;12.47;;;5.10;;
70320;SDS011;61127;55.826;37.046;2023-12-29T13:52:29;14.75;;;4.88;;
70320;SDS011;61127;55.826;37.046;2023-12-29T13:54:54;12.10;;;4.25;;
70320;SDS011;61127;55.826;37.046;2023-12-29T13:57:29;10.27;;;4.80;;
70320;SDS011;61127;55.826;37.046;2023-12-29T13:59:55;11.40;;;4.82;;
70320;SDS011;61127;55.826;37.046;2023-12-29T14:02:27;12.85;;;4.57;;
70320;SDS011;61127;55.826;37.046;2023-12-29T14:05:11;11.25;;;5.25;;
70320;SDS011;61127;55.826;37.046;2023-12-29T14:07:37;14.80;;;5.28;;
70320;SDS011;61127;55.826;37.046;2023-12-29T14:10:08;13.88;;;4.55;;
70320;SDS011;61127;55.826;37.046;2023-12-29T14:12:34;13.77;;;5.73;;
70320;SDS011;61127;55.826;37.046;2023-12-29T14:15:04;14.57;;;5.38;;
70320;SDS011;61127;55.826;37.046;2023-12-29T14:17:30;12.20;;;4.95;;
70320;SDS011;61127;55.826;37.046;2023-12-29T14:19:57;17.47;;;6.67;;
70320;SDS011;61127;55.826;37.046;2023-12-29T14:22:32;11.18;;;5.32;;
70320;SDS011;61127;55.826;37.046;2023-12-29T14:25:02;14.18;;;5.68;;
70320;SDS011;61127;55.826;37.046;2023-12-29T14:27:29;15.68;;;6.00;;
70320;SDS011;61127;55.826;37.046;2023-12-29T14:29:56;13.80;;;5.50;;
70320;SDS011;61127;55.826;37.046;2023-12-29T14:32:22;9.87;;;5.00;;
70320;SDS011;61127;55.826;37.046;2023-12-29T14:34:49;13.35;;;5.75;;
70320;SDS011;61127;55.826;37.046;2023-12-29T14:37:21;11.05;;;4.80;;
70320;SDS011;61127;55.826;37.046;2023-12-29T14:39:50;16.85;;;5.40;;
70320;SDS011;61127;55.826;37.046;2023-12-29T14:42:16;12.05;;;5.15;;
70320;SDS011;61127;55.826;37.046;2023-12-29T14:44:46;9.97;;;4.47;;
70320;SDS011;61127;55.826;37.046;2023-12-29T14:47:15;13.85;;;5.60;;